sensor_id;sensor_type;location;lat;lon;timestamp;P1;durP1;ratioP1;P2;durP2;ratioP2
39066;SDS011;24821;51.988;6.020;2023-06-10T00:01:23;5.97;;;5.40;;
39066;SDS011;24821;51.988;6.020;2023-06-10T00:03:50;5.47;;;4.97;;
39066;SDS011;24821;51.988;6.020;2023-06-10T00:06:17;5.07;;;4.68;;
39066;SDS011;24821;51.988;6.020;2023-06-10T00:08:42;6.43;;;5.72;;
39066;SDS011;24821;51.988;6.020;2023-06-10T00:11:08;7.53;;;5.75;;
39066;SDS011;24821;51.988;6.020;2023-06-10T00:13:33;5.40;;;4.90;;
39066;SDS011;24821;51.988;6.020;2023-06-10T00:15:59;8.57;;;5.15;;
39066;SDS011;24821;51.988;6.020;2023-06-10T00:18:25;4.80;;;4.40;;
39066;SDS011;24821;51.988;6.020;2023-06-10T00:20:51;5.38;;;4.88;;
39066;SDS011;24821;51.988;6.020;2023-06-10T00:23:18;6.20;;;5.65;;
39066;SDS011;24821;51.988;6.020;2023-06-10T00:25:43;5.65;;;3.90;;
39066;SDS011;24821;51.988;6.020;2023-06-10T00:28:09;4.30;;;4.00;;
39066;SDS011;24821;51.988;6.020;2023-06-10T00:30:35;4.32;;;4.03;;
39066;SDS011;24821;51.988;6.020;2023-06-10T00:33:00;4.80;;;4.40;;
39066;SDS011;24821;51.988;6.020;2023-06-10T00:35:26;4.72;;;4.32;;
39066;SDS011;24821;51.988;6.020;2023-06-10T00:37:51;4.80;;;4.35;;
39066;SDS011;24821;51.988;6.020;2023-06-10T00:40:17;4.72;;;3.85;;
39066;SDS011;24821;51.988;6.020;2023-06-10T00:42:42;4.25;;;3.85;;
39066;SDS011;24821;51.988;6.020;2023-06-10T00:45:08;4.35;;;3.97;;
39066;SDS011;24821;51.988;6.020;2023-06-10T00:47:34;4.00;;;3.72;;
39066;SDS011;24821;51.988;6.020;2023-06-10T00:50:00;4.90;;;3.90;;
39066;SDS011;24821;51.988;6.020;2023-06-10T00:52:27;5.93;;;4.18;;
39066;SDS011;24821;51.988;6.020;2023-06-10T00:54:55;4.38;;;3.95;;
39066;SDS011;24821;51.988;6.020;2023-06-10T00:57:21;3.95;;;3.55;;
39066;SDS011;24821;51.988;6.020;2023-06-10T00:59:47;4.40;;;4.00;;
39066;SDS011;24821;51.988;6.020;2023-06-10T01:02:14;4.95;;;4.45;;
39066;SDS011;24821;51.988;6.020;2023-06-10T01:04:39;6.03;;;3.83;;
39066;SDS011;24821;51.988;6.020;2023-06-10T01:09:59;4.95;;;4.32;;
39066;SDS011;24821;51.988;6.020;2023-06-10T01:12:38;5.20;;;3.92;;
39066;SDS011;24821;51.988;6.020;2023-06-10T01:15:17;4.05;;;3.65;;
39066;SDS011;24821;51.988;6.020;2023-06-10T01:17:55;4.07;;;3.75;;
39066;SDS011;24821;51.988;6.020;2023-06-10T01:20:26;5.25;;;3.55;;
39066;SDS011;24821;51.988;6.020;2023-06-10T01:22:55;4.85;;;3.80;;
39066;SDS011;24821;51.988;6.020;2023-06-10T01:25:23;6.40;;;3.85;;
39066;SDS011;24821;51.988;6.020;2023-06-10T01:28:08;5.85;;;3.67;;
39066;SDS011;24821;51.988;6.020;2023-06-10T01:33:38;5.43;;;3.72;;
39066;SDS011;24821;51.988;6.020;2023-06-10T01:36:08;4.53;;;3.72;;
39066;SDS011;24821;51.988;6.020;2023-06-10T01:38:39;4.70;;;3.33;;
39066;SDS011;24821;51.988;6.020;2023-06-10T01:41:07;4.93;;;3.80;;
39066;SDS011;24821;51.988;6.020;2023-06-10T01:43:33;4.38;;;3.10;;
39066;SDS011;24821;51.988;6.020;2023-06-10T01:45:59;4.32;;;3.83;;
39066;SDS011;24821;51.988;6.020;2023-06-10T01:48:26;4.60;;;3.72;;
39066;SDS011;24821;51.988;6.020;2023-06-10T01:50:52;4.65;;;3.78;;
39066;SDS011;24821;51.988;6.020;2023-06-10T01:53:18;3.65;;;3.33;;
39066;SDS011;24821;51.988;6.020;2023-06-10T01:55:43;3.72;;;3.38;;
39066;SDS011;24821;51.988;6.020;2023-06-10T01:58:09;4.78;;;3.42;;
39066;SDS011;24821;51.988;6.020;2023-06-10T02:00:35;3.90;;;3.50;;
39066;SDS011;24821;51.988;6.020;2023-06-10T02:03:00;7.32;;;3.83;;
39066;SDS011;24821;51.988;6.020;2023-06-10T02:05:26;4.85;;;3.40;;
39066;SDS011;24821;51.988;6.020;2023-06-10T02:07:51;3.15;;;2.90;;
39066;SDS011;24821;51.988;6.020;2023-06-10T02:10:17;3.55;;;2.83;;
39066;SDS011;24821;51.988;6.020;2023-06-10T02:12:42;4.47;;;3.58;;
39066;SDS011;24821;51.988;6.020;2023-06-10T02:15:08;4.22;;;2.95;;
39066;SDS011;24821;51.988;6.020;2023-06-10T02:17:33;4.25;;;3.78;;
39066;SDS011;24821;51.988;6.020;2023-06-10T02:19:59;5.38;;;3.55;;
39066;SDS011;24821;51.988;6.020;2023-06-10T02:22:28;5.68;;;3.75;;
39066;SDS011;24821;51.988;6.020;2023-06-10T02:24:54;5.95;;;3.35;;
39066;SDS011;24821;51.988;6.020;2023-06-10T02:27:20;3.33;;;2.88;;
39066;SDS011;24821;51.988;6.020;2023-06-10T02:29:46;3.45;;;3.13;;
39066;SDS011;24821;51.988;6.020;2023-06-10T02:32:11;4.60;;;3.42;;
39066;SDS011;24821;51.988;6.020;2023-06-10T02:34:37;4.95;;;4.20;;
39066;SDS011;24821;51.988;6.020;2023-06-10T02:37:03;7.43;;;4.20;;
39066;SDS011;24821;51.988;6.020;2023-06-10T02:39:28;3.85;;;3.45;;
39066;SDS011;24821;51.988;6.020;2023-06-10T02:41:54;11.75;;;3.65;;
39066;SDS011;24821;51.988;6.020;2023-06-10T02:44:20;3.80;;;3.47;;
39066;SDS011;24821;51.988;6.020;2023-06-10T02:46:45;4.20;;;3.78;;
39066;SDS011;24821;51.988;6.020;2023-06-10T02:49:11;3.28;;;2.97;;
39066;SDS011;24821;51.988;6.020;2023-06-10T02:51:37;5.15;;;3.90;;
39066;SDS011;24821;51.988;6.020;2023-06-10T02:54:03;4.72;;;3.92;;
39066;SDS011;24821;51.988;6.020;2023-06-10T02:56:29;4.32;;;3.30;;
39066;SDS011;24821;51.988;6.020;2023-06-10T02:58:56;5.40;;;4.20;;
39066;SDS011;24821;51.988;6.020;2023-06-10T03:01:22;6.70;;;3.92;;
39066;SDS011;24821;51.988;6.020;2023-06-10T03:03:47;4.35;;;3.92;;
39066;SDS011;24821;51.988;6.020;2023-06-10T03:06:15;5.00;;;3.83;;
39066;SDS011;24821;51.988;6.020;2023-06-10T03:08:41;7.47;;;3.78;;
39066;SDS011;24821;51.988;6.020;2023-06-10T03:11:06;3.40;;;3.15;;
39066;SDS011;24821;51.988;6.020;2023-06-10T03:13:32;4.82;;;3.88;;
39066;SDS011;24821;51.988;6.020;2023-06-10T03:15:58;7.78;;;3.35;;
39066;SDS011;24821;51.988;6.020;2023-06-10T03:18:26;5.90;;;4.53;;
39066;SDS011;24821;51.988;6.020;2023-06-10T03:20:53;4.40;;;3.95;;
39066;SDS011;24821;51.988;6.020;2023-06-10T03:23:20;4.95;;;4.45;;
39066;SDS011;24821;51.988;6.020;2023-06-10T03:25:45;5.13;;;4.63;;
39066;SDS011;24821;51.988;6.020;2023-06-10T03:28:11;6.45;;;4.85;;
39066;SDS011;24821;51.988;6.020;2023-06-10T03:30:37;4.70;;;4.40;;
39066;SDS011;24821;51.988;6.020;2023-06-10T03:33:02;4.93;;;4.47;;
39066;SDS011;24821;51.988;6.020;2023-06-10T03:35:29;5.13;;;4.63;;
39066;SDS011;24821;51.988;6.020;2023-06-10T03:37:54;5.55;;;5.13;;
39066;SDS011;24821;51.988;6.020;2023-06-10T03:40:20;6.03;;;5.55;;
39066;SDS011;24821;51.988;6.020;2023-06-10T03:42:45;5.72;;;5.20;;
39066;SDS011;24821;51.988;6.020;2023-06-10T03:45:11;6.03;;;5.60;;
39066;SDS011;24821;51.988;6.020;2023-06-10T03:47:37;6.68;;;5.15;;
39066;SDS011;24821;51.988;6.020;2023-06-10T03:50:03;6.47;;;5.88;;
39066;SDS011;24821;51.988;6.020;2023-06-10T03:52:29;5.65;;;5.28;;
39066;SDS011;24821;51.988;6.020;2023-06-10T03:54:55;7.13;;;5.38;;
39066;SDS011;24821;51.988;6.020;2023-06-10T03:57:21;8.00;;;6.22;;
39066;SDS011;24821;51.988;6.020;2023-06-10T03:59:47;6.00;;;5.50;;
39066;SDS011;24821;51.988;6.020;2023-06-10T04:02:12;7.05;;;6.28;;
39066;SDS011;24821;51.988;6.020;2023-06-10T04:04:38;7.05;;;5.20;;
39066;SDS011;24821;51.988;6.020;2023-06-10T04:07:04;5.60;;;5.10;;
39066;SDS011;24821;51.988;6.020;2023-06-10T04:09:30;5.60;;;5.10;;
39066;SDS011;24821;51.988;6.020;2023-06-10T04:11:56;13.57;;;5.38;;
39066;SDS011;24821;51.988;6.020;2023-06-10T04:14:22;7.00;;;5.50;;
39066;SDS011;24821;51.988;6.020;2023-06-10T04:16:47;7.55;;;6.15;;
39066;SDS011;24821;51.988;6.020;2023-06-10T04:19:13;6.13;;;5.60;;
39066;SDS011;24821;51.988;6.020;2023-06-10T04:21:38;6.70;;;5.57;;
39066;SDS011;24821;51.988;6.020;2023-06-10T04:24:04;7.05;;;6.10;;
39066;SDS011;24821;51.988;6.020;2023-06-10T04:26:30;6.78;;;6.18;;
39066;SDS011;24821;51.988;6.020;2023-06-10T04:28:55;6.43;;;5.82;;
39066;SDS011;24821;51.988;6.020;2023-06-10T04:31:21;6.13;;;4.90;;
39066;SDS011;24821;51.988;6.020;2023-06-10T04:33:46;13.75;;;6.18;;
39066;SDS011;24821;51.988;6.020;2023-06-10T04:36:12;7.22;;;6.05;;
39066;SDS011;24821;51.988;6.020;2023-06-10T04:38:39;6.43;;;5.80;;
39066;SDS011;24821;51.988;6.020;2023-06-10T04:41:05;7.07;;;6.38;;
39066;SDS011;24821;51.988;6.020;2023-06-10T04:43:31;7.30;;;6.35;;
39066;SDS011;24821;51.988;6.020;2023-06-10T04:45:56;6.78;;;6.38;;
39066;SDS011;24821;51.988;6.020;2023-06-10T04:48:22;7.82;;;5.90;;
39066;SDS011;24821;51.988;6.020;2023-06-10T04:50:49;7.80;;;7.10;;
39066;SDS011;24821;51.988;6.020;2023-06-10T04:53:15;6.63;;;6.15;;
39066;SDS011;24821;51.988;6.020;2023-06-10T04:55:41;7.15;;;6.53;;
39066;SDS011;24821;51.988;6.020;2023-06-10T04:58:07;6.75;;;6.22;;
39066;SDS011;24821;51.988;6.020;2023-06-10T05:00:32;7.93;;;7.22;;
39066;SDS011;24821;51.988;6.020;2023-06-10T05:02:58;7.68;;;7.07;;
39066;SDS011;24821;51.988;6.020;2023-06-10T05:05:23;9.00;;;7.85;;
39066;SDS011;24821;51.988;6.020;2023-06-10T05:07:49;6.32;;;5.93;;
39066;SDS011;24821;51.988;6.020;2023-06-10T05:10:15;6.72;;;6.20;;
39066;SDS011;24821;51.988;6.020;2023-06-10T05:12:40;8.10;;;7.32;;
39066;SDS011;24821;51.988;6.020;2023-06-10T05:15:06;8.38;;;7.75;;
39066;SDS011;24821;51.988;6.020;2023-06-10T05:17:32;7.35;;;6.78;;
39066;SDS011;24821;51.988;6.020;2023-06-10T05:19:59;7.70;;;7.13;;
39066;SDS011;24821;51.988;6.020;2023-06-10T05:22:25;7.35;;;6.75;;
39066;SDS011;24821;51.988;6.020;2023-06-10T05:24:52;7.97;;;7.43;;
39066;SDS011;24821;51.988;6.020;2023-06-10T05:27:18;7.75;;;7.05;;
39066;SDS011;24821;51.988;6.020;2023-06-10T05:29:43;9.30;;;8.50;;
39066;SDS011;24821;51.988;6.020;2023-06-10T05:32:10;7.65;;;6.97;;
39066;SDS011;24821;51.988;6.020;2023-06-10T05:34:36;7.55;;;6.95;;
39066;SDS011;24821;51.988;6.020;2023-06-10T05:37:01;8.05;;;7.40;;
39066;SDS011;24821;51.988;6.020;2023-06-10T05:39:27;9.55;;;8.25;;
39066;SDS011;24821;51.988;6.020;2023-06-10T05:41:53;7.90;;;7.07;;
39066;SDS011;24821;51.988;6.020;2023-06-10T05:44:18;8.57;;;7.72;;
39066;SDS011;24821;51.988;6.020;2023-06-10T05:46:44;7.72;;;7.13;;
39066;SDS011;24821;51.988;6.020;2023-06-10T05:49:09;7.90;;;7.28;;
39066;SDS011;24821;51.988;6.020;2023-06-10T05:51:35;7.93;;;7.32;;
39066;SDS011;24821;51.988;6.020;2023-06-10T05:54:01;8.60;;;7.90;;
39066;SDS011;24821;51.988;6.020;2023-06-10T05:56:27;7.57;;;6.90;;
39066;SDS011;24821;51.988;6.020;2023-06-10T05:58:53;7.35;;;6.85;;
39066;SDS011;24821;51.988;6.020;2023-06-10T06:01:19;8.00;;;7.40;;
39066;SDS011;24821;51.988;6.020;2023-06-10T06:03:44;8.57;;;7.78;;
39066;SDS011;24821;51.988;6.020;2023-06-10T06:06:10;8.07;;;7.47;;
39066;SDS011;24821;51.988;6.020;2023-06-10T06:08:35;8.77;;;8.07;;
39066;SDS011;24821;51.988;6.020;2023-06-10T06:11:01;7.85;;;7.22;;
39066;SDS011;24821;51.988;6.020;2023-06-10T06:13:26;8.27;;;7.40;;
39066;SDS011;24821;51.988;6.020;2023-06-10T06:15:52;8.98;;;7.45;;
39066;SDS011;24821;51.988;6.020;2023-06-10T06:18:18;6.70;;;6.20;;
39066;SDS011;24821;51.988;6.020;2023-06-10T06:20:43;7.10;;;4.82;;
39066;SDS011;24821;51.988;6.020;2023-06-10T06:23:09;4.55;;;4.15;;
39066;SDS011;24821;51.988;6.020;2023-06-10T06:25:35;5.70;;;4.18;;
39066;SDS011;24821;51.988;6.020;2023-06-10T06:28:03;5.88;;;4.22;;
39066;SDS011;24821;51.988;6.020;2023-06-10T06:30:30;4.97;;;4.05;;
39066;SDS011;24821;51.988;6.020;2023-06-10T06:32:56;4.35;;;3.95;;
39066;SDS011;24821;51.988;6.020;2023-06-10T06:35:21;4.78;;;4.38;;
39066;SDS011;24821;51.988;6.020;2023-06-10T06:37:47;6.22;;;4.15;;
39066;SDS011;24821;51.988;6.020;2023-06-10T06:40:13;4.43;;;3.50;;
39066;SDS011;24821;51.988;6.020;2023-06-10T06:42:39;8.48;;;4.90;;
39066;SDS011;24821;51.988;6.020;2023-06-10T06:45:04;4.30;;;3.35;;
39066;SDS011;24821;51.988;6.020;2023-06-10T06:47:31;4.60;;;4.07;;
39066;SDS011;24821;51.988;6.020;2023-06-10T06:49:57;5.75;;;4.30;;
39066;SDS011;24821;51.988;6.020;2023-06-10T06:52:22;4.35;;;3.85;;
39066;SDS011;24821;51.988;6.020;2023-06-10T06:54:48;3.70;;;3.40;;
39066;SDS011;24821;51.988;6.020;2023-06-10T06:57:14;4.70;;;4.28;;
39066;SDS011;24821;51.988;6.020;2023-06-10T06:59:40;5.90;;;3.80;;
39066;SDS011;24821;51.988;6.020;2023-06-10T07:02:05;3.92;;;3.63;;
39066;SDS011;24821;51.988;6.020;2023-06-10T07:04:31;5.20;;;4.10;;
39066;SDS011;24821;51.988;6.020;2023-06-10T07:06:56;5.97;;;3.78;;
39066;SDS011;24821;51.988;6.020;2023-06-10T07:09:22;4.20;;;3.88;;
39066;SDS011;24821;51.988;6.020;2023-06-10T07:11:48;4.45;;;4.05;;
39066;SDS011;24821;51.988;6.020;2023-06-10T07:14:13;5.45;;;4.03;;
39066;SDS011;24821;51.988;6.020;2023-06-10T07:16:39;4.47;;;4.18;;
39066;SDS011;24821;51.988;6.020;2023-06-10T07:19:04;5.78;;;4.28;;
39066;SDS011;24821;51.988;6.020;2023-06-10T07:21:30;4.00;;;3.60;;
39066;SDS011;24821;51.988;6.020;2023-06-10T07:23:57;4.38;;;3.78;;
39066;SDS011;24821;51.988;6.020;2023-06-10T07:26:22;3.67;;;3.38;;
39066;SDS011;24821;51.988;6.020;2023-06-10T07:28:48;4.82;;;4.32;;
39066;SDS011;24821;51.988;6.020;2023-06-10T07:31:14;6.90;;;4.00;;
39066;SDS011;24821;51.988;6.020;2023-06-10T07:33:40;4.50;;;3.47;;
39066;SDS011;24821;51.988;6.020;2023-06-10T07:36:06;8.23;;;2.83;;
39066;SDS011;24821;51.988;6.020;2023-06-10T07:38:32;3.75;;;3.45;;
39066;SDS011;24821;51.988;6.020;2023-06-10T07:40:57;3.83;;;3.53;;
39066;SDS011;24821;51.988;6.020;2023-06-10T07:43:23;9.38;;;3.95;;
39066;SDS011;24821;51.988;6.020;2023-06-10T07:45:49;3.58;;;2.75;;
39066;SDS011;24821;51.988;6.020;2023-06-10T07:48:15;3.53;;;3.22;;
39066;SDS011;24821;51.988;6.020;2023-06-10T07:50:41;4.38;;;2.33;;
39066;SDS011;24821;51.988;6.020;2023-06-10T07:53:06;3.78;;;3.03;;
39066;SDS011;24821;51.988;6.020;2023-06-10T07:55:32;3.58;;;3.28;;
39066;SDS011;24821;51.988;6.020;2023-06-10T07:57:57;4.88;;;3.33;;
39066;SDS011;24821;51.988;6.020;2023-06-10T08:00:23;4.40;;;2.90;;
39066;SDS011;24821;51.988;6.020;2023-06-10T08:02:49;3.00;;;2.50;;
39066;SDS011;24821;51.988;6.020;2023-06-10T08:05:15;3.50;;;3.15;;
39066;SDS011;24821;51.988;6.020;2023-06-10T08:07:41;3.70;;;2.72;;
39066;SDS011;24821;51.988;6.020;2023-06-10T08:10:06;4.53;;;3.03;;
39066;SDS011;24821;51.988;6.020;2023-06-10T08:12:33;4.38;;;2.58;;
39066;SDS011;24821;51.988;6.020;2023-06-10T08:14:59;2.72;;;2.30;;
39066;SDS011;24821;51.988;6.020;2023-06-10T08:17:25;4.45;;;2.78;;
39066;SDS011;24821;51.988;6.020;2023-06-10T08:19:51;2.65;;;2.22;;
39066;SDS011;24821;51.988;6.020;2023-06-10T08:22:16;3.50;;;2.15;;
39066;SDS011;24821;51.988;6.020;2023-06-10T08:24:42;2.63;;;2.42;;
39066;SDS011;24821;51.988;6.020;2023-06-10T08:27:07;3.63;;;2.45;;
39066;SDS011;24821;51.988;6.020;2023-06-10T08:29:33;3.13;;;2.30;;
39066;SDS011;24821;51.988;6.020;2023-06-10T08:31:59;2.53;;;2.22;;
39066;SDS011;24821;51.988;6.020;2023-06-10T08:34:25;2.72;;;2.22;;
39066;SDS011;24821;51.988;6.020;2023-06-10T08:36:50;2.92;;;2.65;;
39066;SDS011;24821;51.988;6.020;2023-06-10T08:39:20;3.22;;;2.75;;
39066;SDS011;24821;51.988;6.020;2023-06-10T08:41:51;2.35;;;2.15;;
39066;SDS011;24821;51.988;6.020;2023-06-10T08:44:28;7.68;;;2.38;;
39066;SDS011;24821;51.988;6.020;2023-06-10T08:46:58;6.13;;;2.58;;
39066;SDS011;24821;51.988;6.020;2023-06-10T08:49:26;4.13;;;2.75;;
39066;SDS011;24821;51.988;6.020;2023-06-10T08:51:55;3.70;;;2.13;;
39066;SDS011;24821;51.988;6.020;2023-06-10T08:54:25;2.58;;;2.00;;
39066;SDS011;24821;51.988;6.020;2023-06-10T08:56:55;4.57;;;2.67;;
39066;SDS011;24821;51.988;6.020;2023-06-10T08:59:22;6.03;;;2.20;;
39066;SDS011;24821;51.988;6.020;2023-06-10T09:01:49;3.35;;;2.13;;
39066;SDS011;24821;51.988;6.020;2023-06-10T09:04:15;2.90;;;2.05;;
39066;SDS011;24821;51.988;6.020;2023-06-10T09:06:42;3.28;;;2.85;;
39066;SDS011;24821;51.988;6.020;2023-06-10T09:09:09;3.83;;;2.90;;
39066;SDS011;24821;51.988;6.020;2023-06-10T09:11:36;3.20;;;2.10;;
39066;SDS011;24821;51.988;6.020;2023-06-10T09:14:03;4.10;;;2.42;;
39066;SDS011;24821;51.988;6.020;2023-06-10T09:16:28;2.67;;;2.30;;
39066;SDS011;24821;51.988;6.020;2023-06-10T09:18:54;3.63;;;2.50;;
39066;SDS011;24821;51.988;6.020;2023-06-10T09:21:23;2.10;;;1.88;;
39066;SDS011;24821;51.988;6.020;2023-06-10T09:23:49;4.15;;;2.65;;
39066;SDS011;24821;51.988;6.020;2023-06-10T09:26:16;2.45;;;1.95;;
39066;SDS011;24821;51.988;6.020;2023-06-10T09:28:43;2.75;;;2.22;;
39066;SDS011;24821;51.988;6.020;2023-06-10T09:31:09;3.92;;;2.50;;
39066;SDS011;24821;51.988;6.020;2023-06-10T09:33:36;1.80;;;1.67;;
39066;SDS011;24821;51.988;6.020;2023-06-10T09:36:04;9.80;;;2.42;;
39066;SDS011;24821;51.988;6.020;2023-06-10T09:38:30;2.35;;;2.15;;
39066;SDS011;24821;51.988;6.020;2023-06-10T09:40:57;2.30;;;2.00;;
39066;SDS011;24821;51.988;6.020;2023-06-10T09:43:23;2.92;;;2.20;;
39066;SDS011;24821;51.988;6.020;2023-06-10T09:46:14;4.45;;;2.20;;
39066;SDS011;24821;51.988;6.020;2023-06-10T09:48:44;2.03;;;1.52;;
39066;SDS011;24821;51.988;6.020;2023-06-10T09:51:11;2.70;;;2.03;;
39066;SDS011;24821;51.988;6.020;2023-06-10T09:53:38;1.70;;;1.60;;
39066;SDS011;24821;51.988;6.020;2023-06-10T09:56:04;2.30;;;1.70;;
39066;SDS011;24821;51.988;6.020;2023-06-10T09:58:36;2.70;;;1.90;;
39066;SDS011;24821;51.988;6.020;2023-06-10T10:01:10;2.00;;;1.85;;
39066;SDS011;24821;51.988;6.020;2023-06-10T10:03:43;2.97;;;2.00;;
39066;SDS011;24821;51.988;6.020;2023-06-10T10:06:17;1.95;;;1.70;;
39066;SDS011;24821;51.988;6.020;2023-06-10T10:08:45;7.10;;;2.00;;
39066;SDS011;24821;51.988;6.020;2023-06-10T10:11:11;1.98;;;1.60;;
39066;SDS011;24821;51.988;6.020;2023-06-10T10:13:39;2.08;;;1.88;;
39066;SDS011;24821;51.988;6.020;2023-06-10T10:16:10;2.15;;;1.63;;
39066;SDS011;24821;51.988;6.020;2023-06-10T10:18:41;2.75;;;2.47;;
39066;SDS011;24821;51.988;6.020;2023-06-10T10:21:14;2.17;;;1.88;;
39066;SDS011;24821;51.988;6.020;2023-06-10T10:26:28;5.90;;;1.67;;
39066;SDS011;24821;51.988;6.020;2023-06-10T10:29:07;2.53;;;1.75;;
39066;SDS011;24821;51.988;6.020;2023-06-10T10:31:39;3.25;;;2.20;;
39066;SDS011;24821;51.988;6.020;2023-06-10T10:34:11;3.58;;;2.03;;
39066;SDS011;24821;51.988;6.020;2023-06-10T10:36:41;3.05;;;1.80;;
39066;SDS011;24821;51.988;6.020;2023-06-10T10:39:08;3.60;;;2.15;;
39066;SDS011;24821;51.988;6.020;2023-06-10T10:41:34;6.45;;;1.60;;
39066;SDS011;24821;51.988;6.020;2023-06-10T10:44:03;9.73;;;2.03;;
39066;SDS011;24821;51.988;6.020;2023-06-10T10:46:37;2.22;;;1.85;;
39066;SDS011;24821;51.988;6.020;2023-06-10T10:49:13;5.93;;;1.73;;
39066;SDS011;24821;51.988;6.020;2023-06-10T10:51:58;3.25;;;2.13;;
39066;SDS011;24821;51.988;6.020;2023-06-10T10:54:28;2.10;;;1.50;;
39066;SDS011;24821;51.988;6.020;2023-06-10T10:57:11;3.55;;;2.13;;
39066;SDS011;24821;51.988;6.020;2023-06-10T11:05:00;3.17;;;1.75;;
39066;SDS011;24821;51.988;6.020;2023-06-10T11:07:26;3.95;;;1.92;;
39066;SDS011;24821;51.988;6.020;2023-06-10T11:10:02;2.35;;;1.75;;
39066;SDS011;24821;51.988;6.020;2023-06-10T11:12:47;2.63;;;2.17;;
39066;SDS011;24821;51.988;6.020;2023-06-10T11:15:19;1.77;;;1.65;;
39066;SDS011;24821;51.988;6.020;2023-06-10T11:23:10;2.78;;;1.77;;
39066;SDS011;24821;51.988;6.020;2023-06-10T11:25:39;7.22;;;2.20;;
39066;SDS011;24821;51.988;6.020;2023-06-10T11:28:17;4.63;;;1.58;;
39066;SDS011;24821;51.988;6.020;2023-06-10T11:30:45;2.15;;;1.98;;
39066;SDS011;24821;51.988;6.020;2023-06-10T11:33:16;2.17;;;1.70;;
39066;SDS011;24821;51.988;6.020;2023-06-10T11:35:42;2.28;;;1.73;;
39066;SDS011;24821;51.988;6.020;2023-06-10T11:38:08;1.90;;;1.80;;
39066;SDS011;24821;51.988;6.020;2023-06-10T11:40:34;2.08;;;1.88;;
39066;SDS011;24821;51.988;6.020;2023-06-10T11:43:03;2.38;;;2.00;;
39066;SDS011;24821;51.988;6.020;2023-06-10T11:45:29;2.95;;;1.42;;
39066;SDS011;24821;51.988;6.020;2023-06-10T11:47:55;1.90;;;1.80;;
39066;SDS011;24821;51.988;6.020;2023-06-10T11:50:31;2.88;;;2.22;;
39066;SDS011;24821;51.988;6.020;2023-06-10T11:52:58;2.15;;;1.95;;
39066;SDS011;24821;51.988;6.020;2023-06-10T11:56:09;3.92;;;2.25;;
39066;SDS011;24821;51.988;6.020;2023-06-10T11:58:20;2.67;;;2.30;;
39066;SDS011;24821;51.988;6.020;2023-06-10T12:00:50;1.48;;;1.38;;
39066;SDS011;24821;51.988;6.020;2023-06-10T12:03:22;2.00;;;1.67;;
39066;SDS011;24821;51.988;6.020;2023-06-10T12:05:55;3.90;;;2.13;;
39066;SDS011;24821;51.988;6.020;2023-06-10T12:08:22;3.88;;;2.13;;
39066;SDS011;24821;51.988;6.020;2023-06-10T12:10:48;1.90;;;1.70;;
39066;SDS011;24821;51.988;6.020;2023-06-10T12:13:13;5.75;;;2.55;;
39066;SDS011;24821;51.988;6.020;2023-06-10T12:15:39;2.67;;;2.13;;
39066;SDS011;24821;51.988;6.020;2023-06-10T12:18:04;2.22;;;2.00;;
39066;SDS011;24821;51.988;6.020;2023-06-10T12:20:31;3.58;;;2.17;;
39066;SDS011;24821;51.988;6.020;2023-06-10T12:22:59;2.25;;;2.08;;
39066;SDS011;24821;51.988;6.020;2023-06-10T12:25:26;2.20;;;2.00;;
39066;SDS011;24821;51.988;6.020;2023-06-10T12:27:55;2.50;;;2.15;;
39066;SDS011;24821;51.988;6.020;2023-06-10T12:30:23;2.97;;;1.75;;
39066;SDS011;24821;51.988;6.020;2023-06-10T12:32:50;2.60;;;2.40;;
39066;SDS011;24821;51.988;6.020;2023-06-10T12:35:18;2.65;;;1.92;;
39066;SDS011;24821;51.988;6.020;2023-06-10T12:37:58;3.42;;;2.40;;
39066;SDS011;24821;51.988;6.020;2023-06-10T12:40:30;4.70;;;2.00;;
39066;SDS011;24821;51.988;6.020;2023-06-10T12:42:57;5.38;;;2.25;;
39066;SDS011;24821;51.988;6.020;2023-06-10T12:45:30;1.58;;;1.48;;
39066;SDS011;24821;51.988;6.020;2023-06-10T12:50:36;2.78;;;2.22;;
39066;SDS011;24821;51.988;6.020;2023-06-10T12:53:06;4.97;;;2.33;;
39066;SDS011;24821;51.988;6.020;2023-06-10T12:55:32;2.95;;;1.70;;
39066;SDS011;24821;51.988;6.020;2023-06-10T12:57:58;3.22;;;2.28;;
39066;SDS011;24821;51.988;6.020;2023-06-10T13:00:25;2.80;;;2.45;;
39066;SDS011;24821;51.988;6.020;2023-06-10T13:02:54;5.28;;;1.98;;
39066;SDS011;24821;51.988;6.020;2023-06-10T13:05:19;2.03;;;1.88;;
39066;SDS011;24821;51.988;6.020;2023-06-10T13:07:45;2.70;;;2.03;;
39066;SDS011;24821;51.988;6.020;2023-06-10T13:10:12;2.72;;;2.35;;
39066;SDS011;24821;51.988;6.020;2023-06-10T13:12:38;1.95;;;1.80;;
39066;SDS011;24821;51.988;6.020;2023-06-10T13:15:04;2.97;;;2.35;;
39066;SDS011;24821;51.988;6.020;2023-06-10T13:17:30;1.92;;;1.83;;
39066;SDS011;24821;51.988;6.020;2023-06-10T13:19:56;6.47;;;2.17;;
39066;SDS011;24821;51.988;6.020;2023-06-10T13:22:21;4.63;;;1.88;;
39066;SDS011;24821;51.988;6.020;2023-06-10T13:24:49;2.95;;;1.90;;
39066;SDS011;24821;51.988;6.020;2023-06-10T13:27:14;4.82;;;2.63;;
39066;SDS011;24821;51.988;6.020;2023-06-10T13:29:40;3.00;;;2.42;;
39066;SDS011;24821;51.988;6.020;2023-06-10T13:32:05;3.38;;;2.88;;
39066;SDS011;24821;51.988;6.020;2023-06-10T13:34:32;4.00;;;2.10;;
39066;SDS011;24821;51.988;6.020;2023-06-10T13:36:57;2.88;;;2.10;;
39066;SDS011;24821;51.988;6.020;2023-06-10T13:39:23;3.22;;;2.55;;
39066;SDS011;24821;51.988;6.020;2023-06-10T13:41:49;5.10;;;2.50;;
39066;SDS011;24821;51.988;6.020;2023-06-10T13:44:14;2.00;;;1.90;;
39066;SDS011;24821;51.988;6.020;2023-06-10T13:46:40;2.47;;;2.25;;
39066;SDS011;24821;51.988;6.020;2023-06-10T13:49:05;4.18;;;2.40;;
39066;SDS011;24821;51.988;6.020;2023-06-10T13:51:31;2.25;;;2.00;;
39066;SDS011;24821;51.988;6.020;2023-06-10T13:53:56;2.50;;;2.08;;
39066;SDS011;24821;51.988;6.020;2023-06-10T13:56:22;1.33;;;1.23;;
39066;SDS011;24821;51.988;6.020;2023-06-10T13:58:48;3.17;;;2.15;;
39066;SDS011;24821;51.988;6.020;2023-06-10T14:01:13;2.95;;;2.65;;
39066;SDS011;24821;51.988;6.020;2023-06-10T14:03:39;2.00;;;1.90;;
39066;SDS011;24821;51.988;6.020;2023-06-10T14:06:04;3.00;;;2.15;;
39066;SDS011;24821;51.988;6.020;2023-06-10T14:08:30;2.45;;;2.25;;
39066;SDS011;24821;51.988;6.020;2023-06-10T14:10:56;6.35;;;2.65;;
39066;SDS011;24821;51.988;6.020;2023-06-10T14:13:21;2.25;;;1.77;;
39066;SDS011;24821;51.988;6.020;2023-06-10T14:15:47;2.83;;;1.88;;
39066;SDS011;24821;51.988;6.020;2023-06-10T14:18:13;4.93;;;3.38;;
39066;SDS011;24821;51.988;6.020;2023-06-10T14:20:38;5.97;;;2.45;;
39066;SDS011;24821;51.988;6.020;2023-06-10T14:23:04;5.45;;;2.28;;
39066;SDS011;24821;51.988;6.020;2023-06-10T14:25:29;3.25;;;2.55;;
39066;SDS011;24821;51.988;6.020;2023-06-10T14:27:55;2.17;;;1.95;;
39066;SDS011;24821;51.988;6.020;2023-06-10T14:30:21;2.10;;;1.85;;
39066;SDS011;24821;51.988;6.020;2023-06-10T14:32:46;2.42;;;2.22;;
39066;SDS011;24821;51.988;6.020;2023-06-10T14:35:12;2.50;;;2.00;;
39066;SDS011;24821;51.988;6.020;2023-06-10T14:37:37;3.03;;;2.25;;
39066;SDS011;24821;51.988;6.020;2023-06-10T14:40:04;2.83;;;2.28;;
39066;SDS011;24821;51.988;6.020;2023-06-10T14:42:31;2.70;;;2.38;;
39066;SDS011;24821;51.988;6.020;2023-06-10T14:44:57;5.82;;;2.60;;
39066;SDS011;24821;51.988;6.020;2023-06-10T14:47:23;2.92;;;2.50;;
39066;SDS011;24821;51.988;6.020;2023-06-10T14:49:49;3.40;;;2.00;;
39066;SDS011;24821;51.988;6.020;2023-06-10T14:52:15;3.50;;;2.20;;
39066;SDS011;24821;51.988;6.020;2023-06-10T14:54:40;2.47;;;2.22;;
39066;SDS011;24821;51.988;6.020;2023-06-10T14:57:06;2.85;;;2.35;;
39066;SDS011;24821;51.988;6.020;2023-06-10T14:59:32;2.00;;;1.90;;
39066;SDS011;24821;51.988;6.020;2023-06-10T15:01:58;3.83;;;2.17;;
39066;SDS011;24821;51.988;6.020;2023-06-10T15:04:25;3.83;;;2.28;;
39066;SDS011;24821;51.988;6.020;2023-06-10T15:06:51;2.88;;;2.38;;
39066;SDS011;24821;51.988;6.020;2023-06-10T15:09:17;2.90;;;2.65;;